Etusivu
METAR-TAF:

METAR-TAF

Lentoasemat :

Ortonville Municipal Airport (Martinson Field)

Ortonville, Minnesota, Yhdysvallat

Leveyspiiri: 45-18-20N, Pituuspiiri: 096-25-28W, korkeus merenpinnasta: 335 m

Tämänhetkinen sää

Tämä raportti tehtiin 16 minuuttia sitten, kello 00.35 UTC
Tuuli 3 kn luoteesta
Lämpötila -3°C
Kosteus 58%
Ilmanpaine 1017 hPa
Näkyvyys: 16.1 km
selkeää

METAR: KVVV 010035Z AUTO 32003KT 10SM CLR M03/M10 A3004 RMK AO2

Aika: 18:51 (00:51 UTC)


TAF: puuttuu

Säähavainnot ja -ennusteet yli 4000 lentoasemalta (METAR- ja TAF-raportit).

Käytössä olevat sääasemat on merkitty karttaan keltaisilla ja punaisilla pisteillä.

Aseta hiiri pisteen päälle nähdäksesi sääaseman nimen.

Klikkaa sitten nähdäksesi säähavainnot ja -ennusteet.

Kartan vaihtaminen: klikkaa mustalla rastilla varustettuja vihreitä pisteitä, niin voit zoomata sisään; viivalla varustettua vihreää pistettä, niin voit zoomata ulos tai vihreitä nuolia, niin pääset viereisille kartoille.


METAR-TAF: